createdAt,value
2022-09-23T00:01:07.670Z,100431.00
2022-09-23T00:03:36.056Z,100430.38
2022-09-23T00:06:08.307Z,100433.38
2022-09-23T00:08:35.154Z,100429.13
2022-09-23T00:11:10.001Z,100434.69
2022-09-23T00:13:37.982Z,100432.38
2022-09-23T00:16:08.998Z,100433.00
2022-09-23T00:18:35.801Z,100425.44
2022-09-23T00:21:06.348Z,100427.34
2022-09-23T00:23:33.121Z,100428.72
2022-09-23T00:26:01.316Z,100420.31
2022-09-23T00:28:27.778Z,100411.56
2022-09-23T00:30:54.484Z,100416.06
2022-09-23T00:33:21.177Z,100419.56
2022-09-23T00:35:47.804Z,100417.88
2022-09-23T00:38:14.399Z,100413.47
2022-09-23T00:40:45.998Z,100415.28
2022-09-23T00:43:13.804Z,100410.41
2022-09-23T00:45:42.334Z,100416.28
2022-09-23T00:48:15.029Z,100411.91
2022-09-23T00:50:43.942Z,100409.56
2022-09-23T00:53:16.207Z,100417.47
2022-09-23T00:55:48.756Z,100413.84
2022-09-23T00:58:18.378Z,100406.06
2022-09-23T01:00:46.373Z,100407.66
2022-09-23T01:03:13.630Z,100404.25
2022-09-23T01:05:40.401Z,100404.56
2022-09-23T01:08:09.175Z,100411.13
2022-09-23T01:10:44.575Z,100404.31
2022-09-23T01:13:28.782Z,100398.97
2022-09-23T01:16:05.607Z,100400.34
2022-09-23T01:19:01.192Z,100397.53
2022-09-23T01:21:39.070Z,100396.03
2022-09-23T01:24:30.628Z,100386.53
2022-09-23T01:27:17.540Z,100392.81
2022-09-23T01:29:56.014Z,100386.66
2022-09-23T01:32:59.813Z,100386.75
2022-09-23T01:35:46.522Z,100373.63
2022-09-23T01:38:25.361Z,100375.75
2022-09-23T01:41:01.246Z,100379.91
2022-09-23T01:43:35.924Z,100370.00
2022-09-23T01:46:09.264Z,100370.09
2022-09-23T01:48:40.822Z,100373.09
2022-09-23T01:51:12.743Z,100370.13
2022-09-23T01:53:41.346Z,100364.28
2022-09-23T01:56:18.021Z,100367.44
2022-09-23T01:58:50.304Z,100363.44
2022-09-23T02:01:21.468Z,100362.84
2022-09-23T02:03:59.233Z,100362.13
2022-09-23T02:06:30.298Z,100364.28
2022-09-23T02:09:02.862Z,100352.97
2022-09-23T02:11:32.488Z,100355.97
2022-09-23T02:14:02.735Z,100353.94
2022-09-23T02:16:40.935Z,100343.28
2022-09-23T02:19:12.405Z,100342.41
2022-09-23T02:21:42.740Z,100345.25
2022-09-23T02:24:13.547Z,100343.44
2022-09-23T02:27:06.283Z,100343.44
2022-09-23T02:29:49.297Z,100340.16
2022-09-23T02:32:20.316Z,100339.97
2022-09-23T02:34:58.715Z,100335.59
2022-09-23T02:37:37.192Z,100330.16
2022-09-23T02:40:36.356Z,100330.59
2022-09-23T02:43:14.333Z,100329.75
2022-09-23T02:45:40.849Z,100327.50
2022-09-23T02:48:21.755Z,100319.50
2022-09-23T02:50:48.667Z,100318.34
2022-09-23T02:53:17.962Z,100312.88
2022-09-23T02:55:44.609Z,100309.47
2022-09-23T02:58:13.330Z,100317.03
2022-09-23T03:00:59.902Z,100308.19
2022-09-23T03:03:47.386Z,100309.69
2022-09-23T03:06:27.865Z,100312.34
2022-09-23T03:09:00.214Z,100314.63
2022-09-23T03:11:26.903Z,100319.75
2022-09-23T03:14:17.557Z,100313.47
2022-09-23T03:17:26.387Z,100300.84
2022-09-23T03:20:01.253Z,100295.75
2022-09-23T03:22:33.788Z,100296.09
2022-09-23T03:25:08.477Z,100293.94
2022-09-23T03:27:36.087Z,100289.47
2022-09-23T03:30:04.415Z,100287.44
2022-09-23T03:32:32.002Z,100282.56
2022-09-23T03:35:00.613Z,100292.72
2022-09-23T03:37:32.846Z,100290.38
2022-09-23T03:40:07.510Z,100281.63
2022-09-23T03:42:34.276Z,100277.03
2022-09-23T03:45:01.324Z,100279.38
2022-09-23T03:47:28.750Z,100279.19
2022-09-23T03:49:56.711Z,100283.13
2022-09-23T03:52:25.270Z,100284.19
2022-09-23T03:54:52.208Z,100282.59
2022-09-23T03:57:21.957Z,100286.22
2022-09-23T03:59:50.440Z,100292.94
2022-09-23T04:02:19.624Z,100291.88
2022-09-23T04:04:46.070Z,100285.25
2022-09-23T04:07:13.322Z,100279.72
2022-09-23T04:09:39.784Z,100284.63
2022-09-23T04:12:07.107Z,100281.41
2022-09-23T04:14:34.968Z,100282.28
2022-09-23T04:17:01.301Z,100280.56
2022-09-23T04:19:27.645Z,100274.63
2022-09-23T04:21:54.050Z,100269.50
2022-09-23T04:24:20.530Z,100271.22
2022-09-23T04:26:50.346Z,100263.13
2022-09-23T04:29:16.757Z,100272.81
2022-09-23T04:31:43.630Z,100265.25
2022-09-23T04:34:10.448Z,100271.31
2022-09-23T04:36:36.743Z,100266.22
2022-09-23T04:39:04.412Z,100278.66
2022-09-23T04:41:30.845Z,100277.16
2022-09-23T04:43:57.556Z,100265.22
2022-09-23T04:46:24.337Z,100261.59
2022-09-23T04:48:50.759Z,100266.22
2022-09-23T04:51:19.969Z,100264.50
2022-09-23T04:53:48.117Z,100262.81
2022-09-23T04:56:17.520Z,100261.00
2022-09-23T04:58:45.477Z,100259.03
2022-09-23T05:01:14.406Z,100258.94
2022-09-23T05:03:41.156Z,100264.16
2022-09-23T05:06:08.018Z,100260.66
2022-09-23T05:08:35.133Z,100254.38
2022-09-23T05:11:04.798Z,100263.22
2022-09-23T05:13:32.563Z,100253.22
2022-09-23T05:16:01.278Z,100257.16
2022-09-23T05:18:30.970Z,100260.13
2022-09-23T05:20:57.550Z,100258.94
2022-09-23T05:23:27.278Z,100262.25
2022-09-23T05:26:05.597Z,100260.03
2022-09-23T05:28:32.904Z,100257.16
2022-09-23T05:31:08.113Z,100254.78
2022-09-23T05:33:35.876Z,100256.06
2022-09-23T05:36:03.635Z,100261.16
2022-09-23T05:38:30.732Z,100259.88
2022-09-23T05:41:04.412Z,100263.47
2022-09-23T05:43:31.595Z,100266.84
2022-09-23T05:46:07.216Z,100249.78
2022-09-23T05:48:35.292Z,100251.03
2022-09-23T05:51:01.870Z,100244.09
2022-09-23T05:53:30.066Z,100240.91
2022-09-23T05:55:57.474Z,100231.06
2022-09-23T05:58:24.745Z,100217.56
2022-09-23T06:00:51.395Z,100220.34
2022-09-23T06:03:21.339Z,100210.09
2022-09-23T06:05:48.433Z,100228.78
2022-09-23T06:08:14.958Z,100239.78
2022-09-23T06:10:43.274Z,100249.34
2022-09-23T06:13:10.130Z,100265.34
2022-09-23T06:15:37.275Z,100291.06
2022-09-23T06:18:06.472Z,100293.44
2022-09-23T06:20:34.006Z,100312.84
2022-09-23T06:23:08.634Z,100307.25
2022-09-23T06:25:40.749Z,100304.88
2022-09-23T06:28:10.746Z,100310.66
2022-09-23T06:30:37.221Z,100312.09
2022-09-23T06:33:03.598Z,100313.00
2022-09-23T06:35:32.486Z,100308.56
2022-09-23T06:37:59.278Z,100318.88
2022-09-23T06:40:25.689Z,100305.16
2022-09-23T06:42:59.591Z,100306.06
2022-09-23T06:45:27.195Z,100306.22
2022-09-23T06:47:56.310Z,100304.31
2022-09-23T06:50:26.553Z,100308.66
2022-09-23T06:52:56.682Z,100300.19
2022-09-23T06:55:24.546Z,100298.38
2022-09-23T06:57:51.147Z,100301.34
2022-09-23T07:00:18.191Z,100299.63
2022-09-23T07:02:44.880Z,100299.66
2022-09-23T07:05:11.462Z,100305.44
2022-09-23T07:07:38.297Z,100315.91
2022-09-23T07:10:06.308Z,100315.41
2022-09-23T07:12:33.350Z,100311.97
2022-09-23T07:14:59.724Z,100307.22
2022-09-23T07:17:26.374Z,100303.63
2022-09-23T07:19:54.918Z,100301.41
2022-09-23T07:22:22.480Z,100301.16
2022-09-23T07:24:48.889Z,100302.34
2022-09-23T07:27:19.985Z,100299.13
2022-09-23T07:29:50.557Z,100294.66
2022-09-23T07:32:17.202Z,100300.31
2022-09-23T07:34:44.373Z,100296.34
2022-09-23T07:37:11.209Z,100299.63
2022-09-23T07:39:37.695Z,100294.16
2022-09-23T07:42:05.266Z,100308.09
2022-09-23T07:44:32.787Z,100300.50
2022-09-23T07:47:00.309Z,100303.25
2022-09-23T07:49:27.756Z,100309.72
2022-09-23T07:51:54.440Z,100299.53
2022-09-23T07:54:21.804Z,100298.06
2022-09-23T07:56:48.195Z,100305.59
2022-09-23T07:59:18.207Z,100296.41
2022-09-23T08:01:48.370Z,100296.31
2022-09-23T08:04:28.154Z,100295.56
2022-09-23T08:06:58.416Z,100309.00
2022-09-23T08:09:27.935Z,100300.47
2022-09-23T08:11:55.208Z,100304.09
2022-09-23T08:14:22.430Z,100304.03
2022-09-23T08:16:49.467Z,100302.78
2022-09-23T08:19:16.474Z,100314.44
2022-09-23T08:21:43.168Z,100314.19
2022-09-23T08:24:13.185Z,100304.41
2022-09-23T08:26:39.671Z,100308.41
2022-09-23T08:29:06.826Z,100308.56
2022-09-23T08:31:33.276Z,100296.56
2022-09-23T08:33:59.940Z,100298.69
2022-09-23T08:36:26.740Z,100291.56
2022-09-23T08:38:53.350Z,100289.47
2022-09-23T08:41:29.415Z,100286.53
2022-09-23T08:43:58.333Z,100280.00
2022-09-23T08:46:28.814Z,100277.97
2022-09-23T08:48:55.830Z,100278.84
2022-09-23T08:51:26.363Z,100284.44
2022-09-23T08:53:52.917Z,100271.03
2022-09-23T08:56:22.592Z,100273.75
2022-09-23T08:59:23.127Z,100264.19
2022-09-23T09:01:53.615Z,100263.88
2022-09-23T09:04:27.873Z,100274.44
2022-09-23T09:07:31.839Z,100261.25
2022-09-23T09:10:09.763Z,100260.78
2022-09-23T09:12:45.750Z,100258.03
2022-09-23T09:15:13.081Z,100257.34
2022-09-23T09:17:48.414Z,100257.97
2022-09-23T09:20:14.873Z,100264.91
2022-09-23T09:22:57.774Z,100259.50
2022-09-23T09:25:34.285Z,100255.16
2022-09-23T09:28:01.330Z,100256.09
2022-09-23T09:30:28.292Z,100252.28
2022-09-23T09:33:01.649Z,100253.53
2022-09-23T09:35:35.065Z,100250.38
2022-09-23T09:38:01.949Z,100244.31
2022-09-23T09:40:28.519Z,100249.78
2022-09-23T09:42:55.070Z,100244.91
2022-09-23T09:45:57.493Z,100246.25
2022-09-23T09:48:33.121Z,100233.13
2022-09-23T09:51:18.722Z,100230.47
2022-09-23T09:53:45.235Z,100229.25
2022-09-23T09:56:14.975Z,100225.66
2022-09-23T09:59:04.813Z,100224.72
2022-09-23T10:01:33.260Z,100213.69
2022-09-23T10:04:33.726Z,100210.03
2022-09-23T10:07:28.170Z,100211.75
2022-09-23T10:09:58.315Z,100211.50
2022-09-23T10:12:43.474Z,100208.53
2022-09-23T10:15:26.975Z,100204.44
2022-09-23T10:17:54.317Z,100206.72
2022-09-23T10:20:20.745Z,100209.75
2022-09-23T10:22:47.602Z,100207.84
2022-09-23T10:25:20.834Z,100204.25
2022-09-23T10:27:47.326Z,100198.13
2022-09-23T10:30:25.159Z,100206.97
2022-09-23T10:32:54.887Z,100192.03
2022-09-23T10:35:23.705Z,100198.81
2022-09-23T10:37:52.585Z,100197.56
2022-09-23T10:40:56.242Z,100193.63
2022-09-23T10:44:09.219Z,100188.81
2022-09-23T10:47:00.395Z,100193.03
2022-09-23T10:49:45.097Z,100185.69
2022-09-23T10:52:38.032Z,100184.28
2022-09-23T10:55:15.302Z,100179.06
2022-09-23T10:57:44.832Z,100171.25
2022-09-23T11:00:22.315Z,100169.84
2022-09-23T11:03:09.267Z,100165.13
2022-09-23T11:06:00.739Z,100169.31
2022-09-23T11:08:36.929Z,100162.28
2022-09-23T11:11:46.042Z,100152.72
2022-09-23T11:14:31.141Z,100152.91
2022-09-23T11:16:58.161Z,100148.63
2022-09-23T11:19:44.740Z,100146.19
2022-09-23T11:22:24.632Z,100146.75
2022-09-23T11:25:00.203Z,100150.63
2022-09-23T11:27:57.126Z,100151.56
2022-09-23T11:30:30.596Z,100147.81
2022-09-23T11:33:04.507Z,100148.84
2022-09-23T11:35:50.965Z,100140.03
2022-09-23T11:38:31.777Z,100139.94
2022-09-23T11:41:01.596Z,100137.25
2022-09-23T11:43:33.475Z,100124.94
2022-09-23T11:46:22.874Z,100130.16
2022-09-23T11:48:56.346Z,100128.38
2022-09-23T11:51:29.344Z,100123.13
2022-09-23T11:54:20.740Z,100114.69
2022-09-23T11:56:51.469Z,100114.84
2022-09-23T12:03:06.617Z,100103.56
2022-09-23T12:05:39.036Z,100099.41
2022-09-23T12:08:25.456Z,100110.19
2022-09-23T12:10:58.974Z,100098.63
2022-09-23T12:13:32.059Z,100097.09
2022-09-23T12:16:11.361Z,100095.81
2022-09-23T12:18:54.397Z,100088.56
2022-09-23T12:21:53.063Z,100094.28
2022-09-23T12:24:46.753Z,100096.31
2022-09-23T12:27:24.156Z,100090.88
2022-09-23T12:30:01.493Z,100090.78
2022-09-23T12:32:28.158Z,100095.91
2022-09-23T12:34:55.336Z,100088.53
2022-09-23T12:37:33.948Z,100089.91
2022-09-23T12:40:09.819Z,100099.44
2022-09-23T12:42:41.341Z,100098.16
2022-09-23T12:45:31.960Z,100087.44
2022-09-23T12:48:03.203Z,100093.53
2022-09-23T12:50:52.474Z,100088.06
2022-09-23T12:53:34.276Z,100088.72
2022-09-23T12:56:14.627Z,100089.25
2022-09-23T12:58:43.842Z,100075.38
2022-09-23T13:01:19.256Z,100075.72
2022-09-23T13:04:06.079Z,100071.75
2022-09-23T13:07:03.485Z,100067.72
2022-09-23T13:09:31.827Z,100060.50
2022-09-23T13:12:03.076Z,100058.88
2022-09-23T13:14:30.374Z,100052.22
2022-09-23T13:16:58.425Z,100058.22
2022-09-23T13:19:27.851Z,100049.44
2022-09-23T13:21:54.221Z,100045.13
2022-09-23T13:24:24.949Z,100041.19
2022-09-23T13:27:02.652Z,100032.38
2022-09-23T13:29:37.330Z,100027.59
2022-09-23T13:32:05.908Z,100035.63
2022-09-23T13:34:34.632Z,100035.22
2022-09-23T13:37:22.862Z,100024.06
2022-09-23T13:39:50.160Z,100034.41
2022-09-23T13:42:27.126Z,100020.69
2022-09-23T13:44:57.377Z,100022.78
2022-09-23T13:47:25.856Z,100023.75
2022-09-23T13:49:52.988Z,100015.94
2022-09-23T13:52:26.383Z,100015.19
2022-09-23T13:54:52.938Z,100018.97
2022-09-23T13:57:31.071Z,100010.59
2022-09-23T14:00:21.222Z,100010.38
2022-09-23T14:02:47.763Z,100009.03
2022-09-23T14:05:21.993Z,100011.63
2022-09-23T14:07:50.229Z,100014.59
2022-09-23T14:10:26.610Z,100003.69
2022-09-23T14:12:54.662Z,100003.66
2022-09-23T14:15:21.445Z,100000.28
2022-09-23T14:18:06.224Z,99994.41
2022-09-23T14:20:34.253Z,100003.03
2022-09-23T14:23:10.887Z,99996.53
2022-09-23T14:25:38.690Z,99994.63
2022-09-23T14:28:05.184Z,99984.31
2022-09-23T14:30:31.877Z,99989.41
2022-09-23T14:32:59.209Z,99974.91
2022-09-23T14:35:28.252Z,99972.81
2022-09-23T14:38:16.912Z,99970.88
2022-09-23T14:40:53.596Z,99972.28
2022-09-23T14:43:25.701Z,99958.97
2022-09-23T14:45:58.951Z,99953.50
2022-09-23T14:48:30.986Z,99960.16
2022-09-23T14:50:59.772Z,99958.00
2022-09-23T14:53:43.048Z,99954.28
2022-09-23T14:56:18.639Z,99953.25
2022-09-23T14:58:56.825Z,99943.06
2022-09-23T15:01:35.382Z,99946.88
2022-09-23T15:04:13.513Z,99951.28
2022-09-23T15:06:46.853Z,99945.03
2022-09-23T15:09:20.125Z,99941.69
2022-09-23T15:11:47.157Z,99948.66
2022-09-23T15:14:36.770Z,99937.47
2022-09-23T15:17:01.338Z,99935.44
2022-09-23T15:19:28.293Z,99940.69
2022-09-23T15:21:54.781Z,99930.91
2022-09-23T15:24:40.849Z,99930.91
2022-09-23T15:27:21.070Z,99946.38
2022-09-23T15:29:47.432Z,99936.97
2022-09-23T15:32:13.873Z,99948.97
2022-09-23T15:34:40.338Z,99949.59
2022-09-23T15:37:11.079Z,99945.44
2022-09-23T15:39:37.469Z,99935.03
2022-09-23T15:42:04.260Z,99937.78
2022-09-23T15:44:30.745Z,99946.34
2022-09-23T15:47:00.009Z,99945.75
2022-09-23T15:49:36.664Z,99932.72
2022-09-23T15:52:04.518Z,99935.44
2022-09-23T15:54:32.414Z,99928.25
2022-09-23T15:57:00.396Z,99929.66
2022-09-23T15:59:28.584Z,99934.13
2022-09-23T16:01:56.293Z,99927.97
2022-09-23T16:04:23.672Z,99931.78
2022-09-23T16:06:50.299Z,99930.06
2022-09-23T16:09:16.939Z,99924.72
2022-09-23T16:11:45.740Z,99928.00
2022-09-23T16:14:14.721Z,99920.75
2022-09-23T16:16:43.933Z,99920.19
2022-09-23T16:19:12.327Z,99908.66
2022-09-23T16:21:40.861Z,99910.09
2022-09-23T16:24:15.020Z,99911.00
2022-09-23T16:26:43.109Z,99911.09
2022-09-23T16:29:11.379Z,99914.91
2022-09-23T16:31:38.677Z,99913.53
2022-09-23T16:34:05.638Z,99919.47
2022-09-23T16:36:39.209Z,99919.69
2022-09-23T16:39:07.656Z,99913.06
2022-09-23T16:41:34.232Z,99914.19
2022-09-23T16:44:02.209Z,99911.13
2022-09-23T16:46:29.758Z,99915.56
2022-09-23T16:48:57.573Z,99914.28
2022-09-23T16:51:38.567Z,99915.41
2022-09-23T16:54:10.151Z,99915.03
2022-09-23T16:56:45.098Z,99911.75
2022-09-23T16:59:13.030Z,99911.34
2022-09-23T17:01:58.270Z,99906.59
2022-09-23T17:04:24.763Z,99905.34
2022-09-23T17:06:52.810Z,99897.13
2022-09-23T17:09:24.749Z,99911.75
2022-09-23T17:11:57.811Z,99904.38
2022-09-23T17:14:24.684Z,99907.97
2022-09-23T17:16:51.189Z,99911.41
2022-09-23T17:19:17.781Z,99902.88
2022-09-23T17:21:44.731Z,99902.56
2022-09-23T17:24:11.511Z,99904.06
2022-09-23T17:26:38.258Z,99906.47
2022-09-23T17:29:05.580Z,99901.50
2022-09-23T17:31:32.261Z,99903.88
2022-09-23T17:33:58.765Z,99904.97
2022-09-23T17:36:25.326Z,99903.81
2022-09-23T17:38:54.462Z,99900.59
2022-09-23T17:41:21.121Z,99903.34
2022-09-23T17:43:47.658Z,99901.03
2022-09-23T17:46:18.706Z,99896.81
2022-09-23T17:48:45.574Z,99898.41
2022-09-23T17:51:15.757Z,99898.09
2022-09-23T17:53:45.083Z,99892.03
2022-09-23T17:56:17.026Z,99902.00
2022-09-23T17:58:44.627Z,99901.38
2022-09-23T18:01:12.883Z,99900.53
2022-09-23T18:03:39.859Z,99899.19
2022-09-23T18:06:08.410Z,99901.72
2022-09-23T18:08:34.858Z,99903.59
2022-09-23T18:11:01.682Z,99895.50
2022-09-23T18:13:28.390Z,99895.50
2022-09-23T18:15:54.942Z,99892.66
2022-09-23T18:18:21.436Z,99896.72
2022-09-23T18:20:47.808Z,99899.06
2022-09-23T18:23:14.435Z,99898.56
2022-09-23T18:25:40.810Z,99900.25
2022-09-23T18:28:07.266Z,99899.91
2022-09-23T18:30:33.713Z,99903.41
2022-09-23T18:33:00.352Z,99899.22
2022-09-23T18:35:26.758Z,99901.25
2022-09-23T18:37:53.180Z,99900.91
2022-09-23T18:40:19.663Z,99900.06
2022-09-23T18:42:46.175Z,99897.16
2022-09-23T18:45:12.607Z,99899.19
2022-09-23T18:47:57.463Z,99893.09
2022-09-23T18:50:44.998Z,99898.34
2022-09-23T18:53:11.457Z,99898.50
2022-09-23T18:55:38.093Z,99899.84
2022-09-23T18:58:07.301Z,99898.81
2022-09-23T19:00:34.079Z,99901.84
2022-09-23T19:03:00.658Z,99896.28
2022-09-23T19:05:27.396Z,99898.47
2022-09-23T19:07:53.806Z,99904.19
2022-09-23T19:10:20.278Z,99897.25
2022-09-23T19:12:46.706Z,99897.25
2022-09-23T19:15:14.194Z,99897.78
2022-09-23T19:17:40.619Z,99901.13
2022-09-23T19:20:07.842Z,99892.97
2022-09-23T19:22:34.532Z,99889.09
2022-09-23T19:25:00.918Z,99889.09
2022-09-23T19:27:27.380Z,99888.91
2022-09-23T19:29:53.954Z,99900.50
2022-09-23T19:32:21.109Z,99895.94
2022-09-23T19:34:47.866Z,99898.94
2022-09-23T19:37:14.522Z,99896.09
2022-09-23T19:39:40.981Z,99889.00
2022-09-23T19:42:07.678Z,99893.69
2022-09-23T19:44:37.734Z,99886.56
2022-09-23T19:47:04.431Z,99894.28
2022-09-23T19:49:31.099Z,99887.00
2022-09-23T19:51:57.571Z,99891.72
2022-09-23T19:54:26.934Z,99888.66
2022-09-23T19:56:53.331Z,99887.59
2022-09-23T19:59:19.862Z,99886.56
2022-09-23T20:01:47.956Z,99884.31
2022-09-23T20:04:15.677Z,99876.72
2022-09-23T20:06:42.435Z,99893.19
2022-09-23T20:09:09.035Z,99878.53
2022-09-23T20:11:35.612Z,99884.22
2022-09-23T20:14:03.854Z,99884.38
2022-09-23T20:16:33.297Z,99874.94
2022-09-23T20:19:00.846Z,99880.47
2022-09-23T20:21:29.205Z,99885.94
2022-09-23T20:23:56.204Z,99879.34
2022-09-23T20:26:41.438Z,99877.13
2022-09-23T20:29:08.902Z,99868.81
2022-09-23T20:31:35.555Z,99874.50
2022-09-23T20:34:05.551Z,99878.97
2022-09-23T20:36:33.325Z,99879.53
2022-09-23T20:39:01.619Z,99871.53
2022-09-23T20:41:29.755Z,99865.16
2022-09-23T20:44:00.293Z,99861.06
2022-09-23T20:46:28.555Z,99858.75
2022-09-23T20:48:56.627Z,99862.44
2022-09-23T20:51:24.111Z,99852.28
2022-09-23T20:53:52.719Z,99854.97
2022-09-23T20:56:23.102Z,99853.88
2022-09-23T20:58:50.959Z,99848.16
2022-09-23T21:01:18.163Z,99849.91
2022-09-23T21:03:46.924Z,99848.50
2022-09-23T21:06:15.050Z,99848.44
2022-09-23T21:08:42.358Z,99839.97
2022-09-23T21:11:16.808Z,99850.56
2022-09-23T21:13:47.622Z,99840.72
2022-09-23T21:16:18.107Z,99836.50
2022-09-23T21:18:45.569Z,99833.28
2022-09-23T21:21:14.068Z,99830.91
2022-09-23T21:23:41.984Z,99830.34
2022-09-23T21:26:11.119Z,99831.34
2022-09-23T21:28:44.621Z,99822.16
2022-09-23T21:31:14.872Z,99814.66
2022-09-23T21:33:41.421Z,99822.16
2022-09-23T21:36:07.922Z,99821.72
2022-09-23T21:38:37.951Z,99813.94
2022-09-23T21:41:06.693Z,99818.03
2022-09-23T21:43:35.600Z,99824.06
2022-09-23T21:46:03.629Z,99812.88
2022-09-23T21:48:31.519Z,99810.03
2022-09-23T21:51:00.084Z,99814.97
2022-09-23T21:53:29.474Z,99812.13
2022-09-23T21:56:03.850Z,99814.66
2022-09-23T21:58:34.657Z,99820.78
2022-09-23T22:01:02.248Z,99819.66
2022-09-23T22:03:28.731Z,99818.50
2022-09-23T22:06:02.974Z,99821.75
2022-09-23T22:08:36.852Z,99817.75
2022-09-23T22:11:08.814Z,99814.75
2022-09-23T22:13:35.253Z,99820.13
2022-09-23T22:16:05.204Z,99806.56
2022-09-23T22:18:31.986Z,99806.06
2022-09-23T22:20:58.880Z,99803.22
2022-09-23T22:23:25.516Z,99804.91
2022-09-23T22:26:02.784Z,99804.47
2022-09-23T22:28:51.098Z,99803.63
2022-09-23T22:31:36.335Z,99801.78
2022-09-23T22:34:02.789Z,99797.09
2022-09-23T22:36:29.200Z,99796.78
2022-09-23T22:38:59.060Z,99793.78
2022-09-23T22:41:26.276Z,99786.22
2022-09-23T22:43:53.829Z,99793.63
2022-09-23T22:46:22.201Z,99792.50
2022-09-23T22:48:50.442Z,99793.34
2022-09-23T22:51:16.875Z,99786.19
2022-09-23T22:53:43.409Z,99791.41
2022-09-23T22:56:09.813Z,99793.94
2022-09-23T22:58:36.525Z,99790.56
2022-09-23T23:01:03.148Z,99788.56
2022-09-23T23:03:30.498Z,99785.66
2022-09-23T23:06:00.517Z,99776.91
2022-09-23T23:08:28.180Z,99784.44
2022-09-23T23:10:56.139Z,99776.66
2022-09-23T23:13:23.617Z,99784.56
2022-09-23T23:15:50.744Z,99780.59
2022-09-23T23:18:18.070Z,99788.41
2022-09-23T23:20:46.038Z,99785.72
2022-09-23T23:23:12.605Z,99782.34
2022-09-23T23:25:39.505Z,99770.59
2022-09-23T23:28:06.814Z,99777.28
2022-09-23T23:30:35.085Z,99767.69
2022-09-23T23:33:01.742Z,99774.22
2022-09-23T23:35:28.261Z,99766.28
2022-09-23T23:37:54.692Z,99768.84
2022-09-23T23:40:22.742Z,99777.19
2022-09-23T23:42:49.469Z,99767.44
2022-09-23T23:45:16.659Z,99779.00
2022-09-23T23:47:43.906Z,99770.59
2022-09-23T23:50:10.720Z,99764.03
2022-09-23T23:52:37.199Z,99767.72
2022-09-23T23:55:04.038Z,99763.88
2022-09-23T23:57:30.558Z,99763.31
2022-09-23T23:59:57.038Z,99762.53
